TRA78Z LGSR-EHAM
Flight info
| Callsign | TRA78Z |
|---|---|
| Flight time | 3h 16m |
| Altitude | 36000 |
| Route | NETIS1E NETIS UL607 KEA UL617 MAKED DCT SKJ DCT LONTA UL608 DOLEV/N0440F380 DCT LURID DCT ZAG DCT BEDOX DCT SIMBA DCT GASKA DCT MAPOX DCT NORKU |
| Aircraft | B738/M-SDE2E3FGHIJ1RWXYZ/LB1 |
Departure
| Time | 2026-05-08 12:50 |
|---|---|
| Airport | Santorini International Airport (LGSR) |
Arrival
| Time | 2026-05-08 16:07 |
|---|---|
| Airport | Amsterdam Airport Schiphol (EHAM) |
| Time | Latitude | Longitude | Altitude | Speed | Heading |
|---|---|---|---|---|---|
| 2026-05-08 12:27 | 36.40268 | 25.47424 | 89 ft | 0 kts | 249° |
| 2026-05-08 12:43 | 36.40275 | 25.47444 | 88 ft | 4 kts | 253° |
| 2026-05-08 12:44 | 36.40275 | 25.47472 | 88 ft | 4 kts | 311° |
| 2026-05-08 12:44 | 36.40255 | 25.47488 | 88 ft | 2 kts | 339° |
| 2026-05-08 12:44 | 36.40250 | 25.47490 | 90 ft | 1 kts | 339° |
| 2026-05-08 12:46 | 36.40252 | 25.47489 | 88 ft | 1 kts | 339° |
| 2026-05-08 12:46 | 36.40284 | 25.47474 | 90 ft | 8 kts | 339° |
| 2026-05-08 12:47 | 36.40355 | 25.47441 | 90 ft | 13 kts | 339° |
| 2026-05-08 12:47 | 36.40424 | 25.47471 | 91 ft | 12 kts | 56° |
| 2026-05-08 12:47 | 36.40502 | 25.47472 | 91 ft | 12 kts | 336° |
| 2026-05-08 12:47 | 36.40579 | 25.47433 | 90 ft | 12 kts | 340° |
| 2026-05-08 12:48 | 36.40656 | 25.47398 | 91 ft | 12 kts | 339° |
| 2026-05-08 12:48 | 36.40729 | 25.47362 | 90 ft | 11 kts | 338° |
| 2026-05-08 12:48 | 36.40802 | 25.47334 | 93 ft | 11 kts | 6° |
| 2026-05-08 12:48 | 36.40844 | 25.47406 | 92 ft | 11 kts | 68° |
| 2026-05-08 12:49 | 36.40856 | 25.47468 | 94 ft | 6 kts | 114° |
| 2026-05-08 12:49 | 36.40841 | 25.47480 | 92 ft | 0 kts | 161° |
| 2026-05-08 12:50 | 36.40765 | 25.47514 | 92 ft | 42 kts | 159° |
| 2026-05-08 12:50 | 36.40254 | 25.47758 | 88 ft | 113 kts | 159° |
| 2026-05-08 12:50 | 36.39325 | 25.48204 | 132 ft | 165 kts | 158° |
| 2026-05-08 12:50 | 36.38237 | 25.48757 | 748 ft | 174 kts | 153° |
| 2026-05-08 12:51 | 36.37156 | 25.49550 | 1335 ft | 190 kts | 148° |
| 2026-05-08 12:51 | 36.34643 | 25.51367 | 2391 ft | 218 kts | 150° |
| 2026-05-08 12:51 | 36.33300 | 25.52335 | 2990 ft | 228 kts | 150° |
| 2026-05-08 12:52 | 36.31921 | 25.53332 | 3792 ft | 229 kts | 150° |
| 2026-05-08 12:52 | 36.28952 | 25.53864 | 5400 ft | 225 kts | 208° |
| 2026-05-08 12:52 | 36.27818 | 25.52558 | 6085 ft | 227 kts | 244° |
| 2026-05-08 12:53 | 36.27513 | 25.50651 | 6725 ft | 235 kts | 278° |
| 2026-05-08 12:53 | 36.28217 | 25.48730 | 6960 ft | 262 kts | 311° |
| 2026-05-08 12:53 | 36.29697 | 25.47301 | 7468 ft | 277 kts | 330° |
| 2026-05-08 12:53 | 36.31438 | 25.46207 | 8219 ft | 283 kts | 334° |
| 2026-05-08 12:54 | 36.33234 | 25.45183 | 9047 ft | 286 kts | 334° |
| 2026-05-08 12:54 | 36.35052 | 25.44151 | 9829 ft | 289 kts | 334° |
| 2026-05-08 12:54 | 36.36894 | 25.43091 | 10529 ft | 297 kts | 333° |
| 2026-05-08 12:54 | 36.38838 | 25.41948 | 10739 ft | 322 kts | 332° |
| 2026-05-08 12:55 | 36.40923 | 25.40699 | 10982 ft | 342 kts | 332° |
| 2026-05-08 12:55 | 36.43092 | 25.39386 | 11548 ft | 350 kts | 331° |
| 2026-05-08 12:55 | 36.45292 | 25.38045 | 12272 ft | 354 kts | 331° |
| 2026-05-08 12:55 | 36.47507 | 25.36686 | 13023 ft | 355 kts | 330° |
| 2026-05-08 12:56 | 36.49721 | 25.35321 | 13843 ft | 355 kts | 330° |
| 2026-05-08 12:56 | 36.51928 | 25.33956 | 14635 ft | 355 kts | 329° |
| 2026-05-08 12:56 | 36.54136 | 25.32586 | 15411 ft | 355 kts | 329° |
| 2026-05-08 12:56 | 36.56342 | 25.31216 | 16168 ft | 355 kts | 329° |
| 2026-05-08 12:57 | 36.58552 | 25.29841 | 16862 ft | 355 kts | 328° |
| 2026-05-08 12:57 | 36.60763 | 25.28463 | 17571 ft | 356 kts | 328° |
| 2026-05-08 12:57 | 36.62978 | 25.27081 | 18240 ft | 356 kts | 328° |
| 2026-05-08 12:57 | 36.65196 | 25.25695 | 18855 ft | 358 kts | 328° |
| 2026-05-08 12:58 | 36.67437 | 25.24294 | 19395 ft | 362 kts | 328° |
| 2026-05-08 12:58 | 36.69702 | 25.22876 | 19895 ft | 367 kts | 328° |
| 2026-05-08 12:58 | 36.71991 | 25.21442 | 20417 ft | 370 kts | 328° |
| 2026-05-08 12:58 | 36.74303 | 25.19995 | 20954 ft | 373 kts | 328° |
| 2026-05-08 12:59 | 36.76633 | 25.18536 | 21423 ft | 377 kts | 328° |
| 2026-05-08 12:59 | 36.78986 | 25.17062 | 21876 ft | 380 kts | 328° |
| 2026-05-08 12:59 | 36.81363 | 25.15571 | 22342 ft | 383 kts | 328° |
| 2026-05-08 12:59 | 36.83754 | 25.14071 | 22788 ft | 386 kts | 328° |
| 2026-05-08 13:00 | 36.86165 | 25.12557 | 23204 ft | 390 kts | 328° |
| 2026-05-08 13:00 | 36.88598 | 25.11028 | 23626 ft | 393 kts | 328° |
| 2026-05-08 13:00 | 36.91047 | 25.09488 | 24018 ft | 396 kts | 328° |
| 2026-05-08 13:00 | 36.93519 | 25.07933 | 24400 ft | 399 kts | 328° |
| 2026-05-08 13:01 | 36.96007 | 25.06368 | 24809 ft | 401 kts | 328° |
| 2026-05-08 13:01 | 36.98474 | 25.04814 | 25191 ft | 404 kts | 328° |
| 2026-05-08 13:01 | 37.00989 | 25.03227 | 25568 ft | 406 kts | 328° |
| 2026-05-08 13:01 | 37.03521 | 25.01628 | 25934 ft | 409 kts | 328° |
| 2026-05-08 13:02 | 37.06068 | 25.00019 | 26296 ft | 411 kts | 327° |
| 2026-05-08 13:02 | 37.08631 | 24.98399 | 26649 ft | 413 kts | 327° |
| 2026-05-08 13:02 | 37.11203 | 24.96771 | 26980 ft | 416 kts | 327° |
| 2026-05-08 13:02 | 37.13794 | 24.95130 | 27313 ft | 418 kts | 327° |
| 2026-05-08 13:03 | 37.16397 | 24.93481 | 27655 ft | 420 kts | 327° |
| 2026-05-08 13:03 | 37.19011 | 24.91825 | 27966 ft | 422 kts | 327° |
| 2026-05-08 13:03 | 37.21639 | 24.90157 | 28274 ft | 424 kts | 327° |
| 2026-05-08 13:03 | 37.24279 | 24.88480 | 28554 ft | 427 kts | 327° |
| 2026-05-08 13:04 | 37.26934 | 24.86793 | 28849 ft | 429 kts | 327° |
| 2026-05-08 13:04 | 37.29602 | 24.85098 | 29141 ft | 430 kts | 327° |
| 2026-05-08 13:04 | 37.32280 | 24.83393 | 29428 ft | 432 kts | 327° |
| 2026-05-08 13:04 | 37.34968 | 24.81680 | 29689 ft | 435 kts | 327° |
| 2026-05-08 13:05 | 37.37672 | 24.79955 | 29915 ft | 437 kts | 327° |
| 2026-05-08 13:05 | 37.40391 | 24.78220 | 30188 ft | 439 kts | 327° |
| 2026-05-08 13:05 | 37.43120 | 24.76478 | 30466 ft | 440 kts | 327° |
| 2026-05-08 13:05 | 37.45854 | 24.74730 | 30763 ft | 440 kts | 326° |
| 2026-05-08 13:06 | 37.48577 | 24.72990 | 31161 ft | 438 kts | 326° |
| 2026-05-08 13:06 | 37.51286 | 24.71260 | 31581 ft | 435 kts | 326° |
| 2026-05-08 13:06 | 37.53977 | 24.69538 | 31932 ft | 433 kts | 326° |
| 2026-05-08 13:06 | 37.56663 | 24.67817 | 32246 ft | 432 kts | 326° |
| 2026-05-08 13:07 | 37.59339 | 24.66099 | 32573 ft | 431 kts | 325° |
| 2026-05-08 13:07 | 37.62006 | 24.64385 | 32917 ft | 430 kts | 325° |
| 2026-05-08 13:07 | 37.64661 | 24.62678 | 33266 ft | 427 kts | 325° |
| 2026-05-08 13:07 | 37.67306 | 24.60977 | 33595 ft | 426 kts | 324° |
| 2026-05-08 13:08 | 37.69936 | 24.59284 | 33913 ft | 423 kts | 324° |
| 2026-05-08 13:08 | 37.72556 | 24.57596 | 34211 ft | 422 kts | 324° |
| 2026-05-08 13:08 | 37.75174 | 24.55906 | 34449 ft | 422 kts | 324° |
| 2026-05-08 13:08 | 37.77789 | 24.54217 | 34691 ft | 422 kts | 324° |
| 2026-05-08 13:09 | 37.80403 | 24.52527 | 34942 ft | 421 kts | 324° |
| 2026-05-08 13:09 | 37.83011 | 24.50841 | 35195 ft | 421 kts | 324° |
| 2026-05-08 13:09 | 37.85611 | 24.49159 | 35488 ft | 419 kts | 324° |
| 2026-05-08 13:09 | 37.88201 | 24.47482 | 35724 ft | 418 kts | 324° |
| 2026-05-08 13:10 | 37.90799 | 24.45797 | 35844 ft | 420 kts | 324° |
| 2026-05-08 13:10 | 37.93402 | 24.44106 | 36033 ft | 420 kts | 324° |
| 2026-05-08 13:10 | 37.95998 | 24.42422 | 36282 ft | 419 kts | 324° |
| 2026-05-08 13:10 | 37.98594 | 24.40737 | 36482 ft | 419 kts | 324° |
| 2026-05-08 13:11 | 38.01188 | 24.39051 | 36654 ft | 419 kts | 324° |
| 2026-05-08 13:11 | 38.03770 | 24.37373 | 36986 ft | 415 kts | 324° |
| 2026-05-08 13:11 | 38.06317 | 24.35719 | 37399 ft | 408 kts | 324° |
| 2026-05-08 13:11 | 38.08842 | 24.34077 | 37584 ft | 408 kts | 324° |
| 2026-05-08 13:12 | 38.13892 | 24.30776 | 37729 ft | 413 kts | 324° |
| 2026-05-08 13:12 | 38.16476 | 24.29086 | 37933 ft | 411 kts | 324° |
| 2026-05-08 13:12 | 38.19018 | 24.27424 | 38094 ft | 411 kts | 324° |
| 2026-05-08 13:13 | 38.24106 | 24.24089 | 38101 ft | 416 kts | 324° |
| 2026-05-08 13:13 | 38.29279 | 24.20696 | 38114 ft | 420 kts | 324° |
| 2026-05-08 13:14 | 38.34500 | 24.17267 | 38109 ft | 424 kts | 324° |
| 2026-05-08 13:14 | 38.39753 | 24.13814 | 38090 ft | 424 kts | 324° |
| 2026-05-08 13:15 | 38.44942 | 24.10406 | 38074 ft | 416 kts | 324° |
| 2026-05-08 13:15 | 38.50064 | 24.07028 | 38096 ft | 414 kts | 324° |
| 2026-05-08 13:16 | 38.54343 | 24.04198 | 38090 ft | 413 kts | 324° |
| 2026-05-08 13:16 | 38.59444 | 24.00821 | 38086 ft | 413 kts | 324° |
| 2026-05-08 13:17 | 38.64544 | 23.97438 | 38076 ft | 414 kts | 324° |
| 2026-05-08 13:17 | 38.69630 | 23.94060 | 38065 ft | 416 kts | 324° |
| 2026-05-08 13:18 | 38.74767 | 23.90641 | 38080 ft | 417 kts | 324° |
| 2026-05-08 13:18 | 38.79925 | 23.87207 | 38067 ft | 419 kts | 325° |
| 2026-05-08 13:19 | 38.85111 | 23.83746 | 38067 ft | 422 kts | 325° |
| 2026-05-08 13:19 | 38.90323 | 23.80263 | 38070 ft | 424 kts | 325° |
| 2026-05-08 13:20 | 38.95571 | 23.76749 | 38061 ft | 426 kts | 325° |
| 2026-05-08 13:20 | 39.00844 | 23.73214 | 38055 ft | 428 kts | 325° |
| 2026-05-08 13:21 | 39.06136 | 23.69660 | 38056 ft | 430 kts | 325° |
| 2026-05-08 13:21 | 39.11438 | 23.66093 | 38058 ft | 430 kts | 325° |
| 2026-05-08 13:22 | 39.16751 | 23.62512 | 38049 ft | 431 kts | 325° |
| 2026-05-08 13:22 | 39.22317 | 23.59453 | 38051 ft | 438 kts | 333° |
| 2026-05-08 13:23 | 39.28048 | 23.56808 | 38039 ft | 436 kts | 332° |
| 2026-05-08 13:23 | 39.33723 | 23.54066 | 38045 ft | 435 kts | 332° |
| 2026-05-08 13:24 | 39.39384 | 23.51324 | 38041 ft | 434 kts | 332° |
| 2026-05-08 13:24 | 39.45030 | 23.48587 | 38051 ft | 433 kts | 332° |
| 2026-05-08 13:25 | 39.50662 | 23.45851 | 38046 ft | 432 kts | 332° |
| 2026-05-08 13:25 | 39.56248 | 23.43133 | 38057 ft | 431 kts | 332° |
| 2026-05-08 13:26 | 39.61867 | 23.40392 | 38055 ft | 432 kts | 332° |
| 2026-05-08 13:26 | 39.67494 | 23.37643 | 38057 ft | 433 kts | 332° |
| 2026-05-08 13:27 | 39.73129 | 23.34885 | 38060 ft | 433 kts | 332° |
| 2026-05-08 13:27 | 39.78783 | 23.32137 | 38055 ft | 435 kts | 332° |
| 2026-05-08 13:28 | 39.84463 | 23.29382 | 38059 ft | 436 kts | 332° |
| 2026-05-08 13:28 | 39.90154 | 23.26614 | 38057 ft | 437 kts | 332° |
| 2026-05-08 13:29 | 39.95845 | 23.23825 | 38064 ft | 437 kts | 332° |
| 2026-05-08 13:29 | 40.01541 | 23.21019 | 38066 ft | 438 kts | 332° |
| 2026-05-08 13:30 | 40.07248 | 23.18202 | 38058 ft | 439 kts | 333° |
| 2026-05-08 13:30 | 40.12970 | 23.15376 | 38068 ft | 440 kts | 333° |
| 2026-05-08 13:31 | 40.18697 | 23.12542 | 38072 ft | 441 kts | 333° |
| 2026-05-08 13:31 | 40.24435 | 23.09695 | 38079 ft | 442 kts | 333° |
| 2026-05-08 13:32 | 40.30190 | 23.06834 | 38074 ft | 442 kts | 333° |
| 2026-05-08 13:32 | 40.35942 | 23.03972 | 38073 ft | 443 kts | 333° |
| 2026-05-08 13:33 | 40.41705 | 23.01097 | 38078 ft | 443 kts | 333° |
| 2026-05-08 13:33 | 40.47413 | 22.98074 | 38068 ft | 439 kts | 327° |
| 2026-05-08 13:34 | 40.52761 | 22.94362 | 38073 ft | 437 kts | 325° |
| 2026-05-08 13:34 | 40.58089 | 22.90511 | 38077 ft | 437 kts | 325° |
| 2026-05-08 13:35 | 40.63438 | 22.86704 | 38070 ft | 437 kts | 326° |
| 2026-05-08 13:35 | 40.68800 | 22.82928 | 38074 ft | 437 kts | 326° |
| 2026-05-08 13:36 | 40.74164 | 22.79157 | 38081 ft | 437 kts | 326° |
| 2026-05-08 13:36 | 40.79527 | 22.75383 | 38070 ft | 437 kts | 326° |
| 2026-05-08 13:37 | 40.84890 | 22.71596 | 38072 ft | 437 kts | 326° |
| 2026-05-08 13:37 | 40.90250 | 22.67804 | 38075 ft | 437 kts | 326° |
| 2026-05-08 13:38 | 40.95611 | 22.64003 | 38073 ft | 438 kts | 326° |
| 2026-05-08 13:38 | 41.00980 | 22.60191 | 38067 ft | 438 kts | 326° |
| 2026-05-08 13:39 | 41.06351 | 22.56369 | 38067 ft | 438 kts | 326° |
| 2026-05-08 13:39 | 41.11726 | 22.52536 | 38065 ft | 439 kts | 325° |
| 2026-05-08 13:40 | 41.16610 | 22.47874 | 38072 ft | 430 kts | 315° |
| 2026-05-08 13:40 | 41.21218 | 22.42787 | 38064 ft | 431 kts | 315° |
| 2026-05-08 13:41 | 41.25846 | 22.37689 | 38062 ft | 432 kts | 315° |
| 2026-05-08 13:41 | 41.30498 | 22.32607 | 38050 ft | 433 kts | 315° |
| 2026-05-08 13:42 | 41.35165 | 22.27520 | 38060 ft | 434 kts | 315° |
| 2026-05-08 13:42 | 41.39846 | 22.22409 | 38051 ft | 436 kts | 315° |
| 2026-05-08 13:43 | 41.44546 | 22.17269 | 38045 ft | 438 kts | 315° |
| 2026-05-08 13:43 | 41.49254 | 22.12108 | 38042 ft | 439 kts | 315° |
| 2026-05-08 13:44 | 41.53971 | 22.06925 | 38043 ft | 440 kts | 315° |
| 2026-05-08 13:44 | 41.58664 | 22.01761 | 38039 ft | 440 kts | 315° |
| 2026-05-08 13:45 | 41.63393 | 21.96547 | 38036 ft | 440 kts | 315° |
| 2026-05-08 13:45 | 41.68116 | 21.91328 | 38035 ft | 441 kts | 315° |
| 2026-05-08 13:46 | 41.72840 | 21.86098 | 38034 ft | 441 kts | 315° |
| 2026-05-08 13:46 | 41.77562 | 21.80861 | 38024 ft | 441 kts | 315° |
| 2026-05-08 13:47 | 41.82277 | 21.75619 | 38030 ft | 440 kts | 315° |
| 2026-05-08 13:47 | 41.86989 | 21.70371 | 38032 ft | 440 kts | 315° |
| 2026-05-08 13:48 | 41.91700 | 21.65113 | 38021 ft | 441 kts | 315° |
| 2026-05-08 13:48 | 41.96462 | 21.59914 | 38013 ft | 442 kts | 317° |
| 2026-05-08 13:49 | 42.01343 | 21.54886 | 38021 ft | 442 kts | 317° |
| 2026-05-08 13:49 | 42.06212 | 21.49849 | 38021 ft | 442 kts | 317° |
| 2026-05-08 13:50 | 42.11059 | 21.44781 | 38029 ft | 441 kts | 317° |
| 2026-05-08 13:50 | 42.15868 | 21.39661 | 38022 ft | 439 kts | 313° |
| 2026-05-08 13:51 | 42.19917 | 21.33643 | 38032 ft | 432 kts | 305° |
| 2026-05-08 13:51 | 42.23756 | 21.27397 | 38026 ft | 432 kts | 305° |
| 2026-05-08 13:52 | 42.27614 | 21.21167 | 38040 ft | 433 kts | 305° |
| 2026-05-08 13:52 | 42.31499 | 21.14958 | 38032 ft | 433 kts | 305° |
| 2026-05-08 13:53 | 42.35387 | 21.08756 | 38043 ft | 432 kts | 305° |
| 2026-05-08 13:53 | 42.39273 | 21.02552 | 38048 ft | 432 kts | 305° |
| 2026-05-08 13:54 | 42.43156 | 20.96337 | 38048 ft | 433 kts | 305° |
| 2026-05-08 13:54 | 42.47038 | 20.90104 | 38047 ft | 433 kts | 305° |
| 2026-05-08 13:55 | 42.50927 | 20.83853 | 38048 ft | 434 kts | 305° |
| 2026-05-08 13:56 | 42.56766 | 20.74435 | 38045 ft | 436 kts | 305° |
| 2026-05-08 13:56 | 42.60665 | 20.68131 | 38045 ft | 436 kts | 305° |
| 2026-05-08 13:57 | 42.64565 | 20.61814 | 38036 ft | 436 kts | 305° |
| 2026-05-08 13:57 | 42.68463 | 20.55485 | 38039 ft | 437 kts | 305° |
| 2026-05-08 13:58 | 42.72330 | 20.49191 | 38038 ft | 437 kts | 305° |
| 2026-05-08 13:58 | 42.76224 | 20.42842 | 38034 ft | 437 kts | 305° |
| 2026-05-08 13:59 | 42.80112 | 20.36488 | 38038 ft | 437 kts | 305° |
| 2026-05-08 13:59 | 42.84057 | 20.30185 | 38020 ft | 440 kts | 310° |
| 2026-05-08 14:00 | 42.88610 | 20.24578 | 38019 ft | 442 kts | 314° |
| 2026-05-08 14:00 | 42.93273 | 20.19122 | 38029 ft | 441 kts | 314° |
| 2026-05-08 14:01 | 42.97908 | 20.13635 | 38020 ft | 441 kts | 314° |
| 2026-05-08 14:01 | 43.02510 | 20.08107 | 38018 ft | 441 kts | 314° |
| 2026-05-08 14:02 | 43.07099 | 20.02553 | 38019 ft | 441 kts | 314° |
| 2026-05-08 14:02 | 43.11686 | 19.96986 | 38025 ft | 441 kts | 314° |
| 2026-05-08 14:03 | 43.15527 | 19.92314 | 38017 ft | 441 kts | 314° |
| 2026-05-08 14:03 | 43.20119 | 19.86722 | 38027 ft | 442 kts | 314° |
| 2026-05-08 14:04 | 43.24685 | 19.81153 | 38018 ft | 443 kts | 314° |
| 2026-05-08 14:04 | 43.29291 | 19.75522 | 38023 ft | 444 kts | 314° |
| 2026-05-08 14:05 | 43.33903 | 19.69870 | 38011 ft | 445 kts | 314° |
| 2026-05-08 14:05 | 43.38518 | 19.64206 | 38013 ft | 445 kts | 313° |
| 2026-05-08 14:06 | 43.43131 | 19.58529 | 38010 ft | 445 kts | 313° |
| 2026-05-08 14:06 | 43.47731 | 19.52857 | 38020 ft | 443 kts | 313° |
| 2026-05-08 14:07 | 43.52318 | 19.47188 | 38013 ft | 443 kts | 313° |
| 2026-05-08 14:07 | 43.56900 | 19.41513 | 38015 ft | 442 kts | 313° |
| 2026-05-08 14:08 | 43.61474 | 19.35835 | 38002 ft | 442 kts | 313° |
| 2026-05-08 14:08 | 43.66039 | 19.30158 | 37998 ft | 441 kts | 313° |
| 2026-05-08 14:09 | 43.70595 | 19.24481 | 38010 ft | 441 kts | 313° |
| 2026-05-08 14:09 | 43.75152 | 19.18790 | 37994 ft | 441 kts | 313° |
| 2026-05-08 14:10 | 43.79707 | 19.13088 | 37996 ft | 442 kts | 313° |
| 2026-05-08 14:10 | 43.84262 | 19.07377 | 37996 ft | 441 kts | 313° |
| 2026-05-08 14:11 | 43.88804 | 19.01668 | 38019 ft | 441 kts | 313° |
| 2026-05-08 14:11 | 43.93347 | 18.95941 | 38016 ft | 442 kts | 313° |
| 2026-05-08 14:12 | 43.97893 | 18.90202 | 38018 ft | 442 kts | 313° |
| 2026-05-08 14:12 | 44.02443 | 18.84446 | 38024 ft | 442 kts | 313° |
| 2026-05-08 14:13 | 44.06982 | 18.78689 | 38024 ft | 442 kts | 313° |
| 2026-05-08 14:13 | 44.11493 | 18.72955 | 38018 ft | 443 kts | 313° |
| 2026-05-08 14:14 | 44.16037 | 18.67168 | 38016 ft | 442 kts | 313° |
| 2026-05-08 14:14 | 44.20567 | 18.61393 | 38002 ft | 440 kts | 314° |
| 2026-05-08 14:15 | 44.25132 | 18.55690 | 38031 ft | 439 kts | 311° |
| 2026-05-08 14:15 | 44.29549 | 18.49768 | 38021 ft | 441 kts | 313° |
| 2026-05-08 14:16 | 44.34089 | 18.43970 | 38017 ft | 443 kts | 313° |
| 2026-05-08 14:16 | 44.38641 | 18.38170 | 38019 ft | 443 kts | 313° |
| 2026-05-08 14:17 | 44.43176 | 18.32343 | 38009 ft | 443 kts | 313° |
| 2026-05-08 14:17 | 44.47699 | 18.26499 | 38028 ft | 442 kts | 313° |
| 2026-05-08 14:18 | 44.52214 | 18.20644 | 38013 ft | 443 kts | 312° |
| 2026-05-08 14:18 | 44.56730 | 18.14780 | 38018 ft | 443 kts | 312° |
| 2026-05-08 14:19 | 44.61243 | 18.08905 | 38018 ft | 442 kts | 312° |
| 2026-05-08 14:19 | 44.65745 | 18.03031 | 38018 ft | 441 kts | 312° |
| 2026-05-08 14:20 | 44.70235 | 17.97159 | 38018 ft | 441 kts | 312° |
| 2026-05-08 14:20 | 44.74716 | 17.91286 | 38017 ft | 440 kts | 312° |
| 2026-05-08 14:21 | 44.79156 | 17.85455 | 38018 ft | 439 kts | 312° |
| 2026-05-08 14:21 | 44.83646 | 17.79546 | 38012 ft | 438 kts | 312° |
| 2026-05-08 14:22 | 44.88053 | 17.73731 | 38018 ft | 437 kts | 312° |
| 2026-05-08 14:22 | 44.92480 | 17.67874 | 38030 ft | 436 kts | 312° |
| 2026-05-08 14:23 | 44.96899 | 17.62020 | 38020 ft | 436 kts | 312° |
| 2026-05-08 14:23 | 45.01309 | 17.56163 | 38029 ft | 435 kts | 311° |
| 2026-05-08 14:24 | 45.05710 | 17.50304 | 38025 ft | 434 kts | 311° |
| 2026-05-08 14:24 | 45.10103 | 17.44445 | 38019 ft | 434 kts | 311° |
| 2026-05-08 14:25 | 45.14481 | 17.38575 | 38027 ft | 433 kts | 311° |
| 2026-05-08 14:25 | 45.18760 | 17.32583 | 38027 ft | 432 kts | 310° |
| 2026-05-08 14:26 | 45.22997 | 17.26554 | 38029 ft | 431 kts | 310° |
| 2026-05-08 14:26 | 45.27234 | 17.20529 | 38027 ft | 431 kts | 310° |
| 2026-05-08 14:27 | 45.31478 | 17.14506 | 38032 ft | 431 kts | 310° |
| 2026-05-08 14:27 | 45.35724 | 17.08471 | 38023 ft | 432 kts | 310° |
| 2026-05-08 14:28 | 45.39962 | 17.02435 | 38028 ft | 431 kts | 310° |
| 2026-05-08 14:28 | 45.44197 | 16.96391 | 38032 ft | 431 kts | 310° |
| 2026-05-08 14:29 | 45.48431 | 16.90333 | 38039 ft | 432 kts | 309° |
| 2026-05-08 14:29 | 45.52665 | 16.84264 | 38037 ft | 431 kts | 309° |
| 2026-05-08 14:30 | 45.56894 | 16.78185 | 38038 ft | 432 kts | 309° |
| 2026-05-08 14:30 | 45.61120 | 16.72093 | 38041 ft | 432 kts | 309° |
| 2026-05-08 14:31 | 45.65348 | 16.65989 | 38040 ft | 432 kts | 309° |
| 2026-05-08 14:31 | 45.69573 | 16.59877 | 38046 ft | 432 kts | 309° |
| 2026-05-08 14:32 | 45.75875 | 16.50731 | 38046 ft | 432 kts | 309° |
| 2026-05-08 14:32 | 45.80086 | 16.44603 | 38044 ft | 432 kts | 309° |
| 2026-05-08 14:33 | 45.84291 | 16.38468 | 38047 ft | 431 kts | 309° |
| 2026-05-08 14:33 | 45.88492 | 16.32326 | 38048 ft | 431 kts | 309° |
| 2026-05-08 14:34 | 45.92831 | 16.26363 | 38045 ft | 433 kts | 312° |
| 2026-05-08 14:34 | 45.97375 | 16.20579 | 38048 ft | 433 kts | 313° |
| 2026-05-08 14:35 | 46.01853 | 16.14864 | 38048 ft | 433 kts | 313° |
| 2026-05-08 14:35 | 46.06331 | 16.09072 | 38048 ft | 433 kts | 312° |
| 2026-05-08 14:36 | 46.10798 | 16.03262 | 38046 ft | 433 kts | 312° |
| 2026-05-08 14:36 | 46.15262 | 15.97442 | 38047 ft | 432 kts | 312° |
| 2026-05-08 14:37 | 46.19721 | 15.91616 | 38046 ft | 433 kts | 312° |
| 2026-05-08 14:37 | 46.24179 | 15.85780 | 38047 ft | 432 kts | 312° |
| 2026-05-08 14:38 | 46.28615 | 15.79924 | 38043 ft | 431 kts | 311° |
| 2026-05-08 14:38 | 46.32986 | 15.73984 | 38048 ft | 431 kts | 311° |
| 2026-05-08 14:39 | 46.37346 | 15.68020 | 38046 ft | 431 kts | 311° |
| 2026-05-08 14:39 | 46.41707 | 15.62051 | 38046 ft | 431 kts | 311° |
| 2026-05-08 14:40 | 46.46069 | 15.56083 | 38048 ft | 431 kts | 311° |
| 2026-05-08 14:40 | 46.50429 | 15.50104 | 38049 ft | 431 kts | 311° |
| 2026-05-08 14:41 | 46.54782 | 15.44125 | 38041 ft | 430 kts | 311° |
| 2026-05-08 14:41 | 46.59125 | 15.38142 | 38045 ft | 430 kts | 311° |
| 2026-05-08 14:42 | 46.63458 | 15.32160 | 38043 ft | 430 kts | 311° |
| 2026-05-08 14:42 | 46.67795 | 15.26155 | 38046 ft | 430 kts | 311° |
| 2026-05-08 14:43 | 46.72134 | 15.20137 | 38045 ft | 431 kts | 311° |
| 2026-05-08 14:43 | 46.76468 | 15.14111 | 38041 ft | 431 kts | 311° |
| 2026-05-08 14:44 | 46.80797 | 15.08079 | 38045 ft | 430 kts | 311° |
| 2026-05-08 14:44 | 46.85121 | 15.02039 | 38052 ft | 431 kts | 311° |
| 2026-05-08 14:45 | 46.89449 | 14.95978 | 38056 ft | 431 kts | 310° |
| 2026-05-08 14:45 | 46.93748 | 14.89942 | 38038 ft | 432 kts | 310° |
| 2026-05-08 14:46 | 46.98082 | 14.83847 | 38046 ft | 432 kts | 311° |
| 2026-05-08 14:46 | 47.02412 | 14.77743 | 38051 ft | 432 kts | 310° |
| 2026-05-08 14:47 | 47.06749 | 14.71612 | 38041 ft | 433 kts | 310° |
| 2026-05-08 14:47 | 47.11083 | 14.65471 | 38045 ft | 433 kts | 310° |
| 2026-05-08 14:48 | 47.15411 | 14.59322 | 38042 ft | 433 kts | 310° |
| 2026-05-08 14:48 | 47.19738 | 14.53164 | 38048 ft | 432 kts | 310° |
| 2026-05-08 14:49 | 47.23327 | 14.48046 | 38047 ft | 432 kts | 310° |
| 2026-05-08 14:49 | 47.27633 | 14.41888 | 38046 ft | 431 kts | 310° |
| 2026-05-08 14:50 | 47.31928 | 14.35729 | 38046 ft | 431 kts | 310° |
| 2026-05-08 14:50 | 47.36217 | 14.29569 | 38053 ft | 430 kts | 310° |
| 2026-05-08 14:51 | 47.40500 | 14.23403 | 38039 ft | 430 kts | 310° |
| 2026-05-08 14:51 | 47.44767 | 14.17245 | 38047 ft | 428 kts | 310° |
| 2026-05-08 14:52 | 47.51155 | 14.07991 | 38040 ft | 429 kts | 310° |
| 2026-05-08 14:53 | 47.55408 | 14.01813 | 38038 ft | 428 kts | 310° |
| 2026-05-08 14:53 | 47.59652 | 13.95638 | 38050 ft | 428 kts | 310° |
| 2026-05-08 14:54 | 47.63894 | 13.89448 | 38045 ft | 428 kts | 310° |
| 2026-05-08 14:54 | 47.68137 | 13.83241 | 38049 ft | 429 kts | 310° |
| 2026-05-08 14:55 | 47.72383 | 13.77014 | 38053 ft | 429 kts | 310° |
| 2026-05-08 14:55 | 47.76632 | 13.70769 | 38053 ft | 430 kts | 310° |
| 2026-05-08 14:56 | 47.80884 | 13.64507 | 38052 ft | 431 kts | 310° |
| 2026-05-08 14:56 | 47.85148 | 13.58209 | 38049 ft | 432 kts | 310° |
| 2026-05-08 14:57 | 47.89409 | 13.51897 | 38041 ft | 433 kts | 310° |
| 2026-05-08 14:57 | 47.93672 | 13.45567 | 38046 ft | 432 kts | 310° |
| 2026-05-08 14:58 | 47.97927 | 13.39236 | 38043 ft | 432 kts | 310° |
| 2026-05-08 14:58 | 48.02178 | 13.32895 | 38047 ft | 432 kts | 310° |
| 2026-05-08 14:59 | 48.06424 | 13.26546 | 38045 ft | 432 kts | 310° |
| 2026-05-08 14:59 | 48.12779 | 13.17011 | 38056 ft | 431 kts | 310° |
| 2026-05-08 15:00 | 48.17007 | 13.10648 | 38052 ft | 431 kts | 310° |
| 2026-05-08 15:00 | 48.21201 | 13.04323 | 38053 ft | 431 kts | 310° |
| 2026-05-08 15:01 | 48.25642 | 12.98163 | 38057 ft | 434 kts | 315° |
| 2026-05-08 15:01 | 48.30350 | 12.92467 | 38063 ft | 435 kts | 316° |
| 2026-05-08 15:02 | 48.35079 | 12.86794 | 38064 ft | 435 kts | 316° |
| 2026-05-08 15:02 | 48.39791 | 12.81065 | 38066 ft | 436 kts | 316° |
| 2026-05-08 15:03 | 48.44492 | 12.75297 | 38080 ft | 436 kts | 316° |
| 2026-05-08 15:03 | 48.49195 | 12.69502 | 38075 ft | 437 kts | 316° |
| 2026-05-08 15:04 | 48.53904 | 12.63679 | 38073 ft | 438 kts | 316° |
| 2026-05-08 15:04 | 48.58618 | 12.57835 | 38073 ft | 439 kts | 316° |
| 2026-05-08 15:05 | 48.63334 | 12.51980 | 38073 ft | 439 kts | 316° |
| 2026-05-08 15:05 | 48.68011 | 12.46160 | 38079 ft | 438 kts | 316° |
| 2026-05-08 15:06 | 48.72711 | 12.40294 | 38085 ft | 438 kts | 316° |
| 2026-05-08 15:06 | 48.77405 | 12.34417 | 38085 ft | 437 kts | 316° |
| 2026-05-08 15:07 | 48.82093 | 12.28534 | 38085 ft | 437 kts | 316° |
| 2026-05-08 15:07 | 48.86779 | 12.22644 | 38083 ft | 437 kts | 316° |
| 2026-05-08 15:08 | 48.90705 | 12.17698 | 38089 ft | 437 kts | 316° |
| 2026-05-08 15:08 | 48.96149 | 12.10816 | 38083 ft | 438 kts | 316° |
| 2026-05-08 15:09 | 49.00833 | 12.04882 | 38081 ft | 438 kts | 316° |
| 2026-05-08 15:09 | 49.05513 | 11.98939 | 38084 ft | 438 kts | 316° |
| 2026-05-08 15:10 | 49.10192 | 11.92980 | 38082 ft | 438 kts | 316° |
| 2026-05-08 15:10 | 49.14866 | 11.87012 | 38084 ft | 438 kts | 316° |
| 2026-05-08 15:11 | 49.19535 | 11.81039 | 38087 ft | 437 kts | 317° |
| 2026-05-08 15:11 | 49.24194 | 11.75062 | 38085 ft | 437 kts | 317° |
| 2026-05-08 15:12 | 49.28852 | 11.69067 | 38081 ft | 437 kts | 316° |
| 2026-05-08 15:12 | 49.33507 | 11.63056 | 38084 ft | 437 kts | 316° |
| 2026-05-08 15:13 | 49.38164 | 11.57034 | 38079 ft | 438 kts | 316° |
| 2026-05-08 15:13 | 49.42820 | 11.50999 | 38082 ft | 438 kts | 316° |
| 2026-05-08 15:14 | 49.47480 | 11.44943 | 38075 ft | 439 kts | 316° |
| 2026-05-08 15:14 | 49.52139 | 11.38870 | 38075 ft | 439 kts | 316° |
| 2026-05-08 15:15 | 49.56799 | 11.32784 | 38073 ft | 440 kts | 316° |
| 2026-05-08 15:15 | 49.61459 | 11.26679 | 38072 ft | 440 kts | 316° |
| 2026-05-08 15:16 | 49.66118 | 11.20560 | 38072 ft | 440 kts | 316° |
| 2026-05-08 15:16 | 49.70777 | 11.14426 | 38072 ft | 440 kts | 316° |
| 2026-05-08 15:17 | 49.75433 | 11.08279 | 38079 ft | 440 kts | 316° |
| 2026-05-08 15:17 | 49.80085 | 11.02124 | 38085 ft | 440 kts | 316° |
| 2026-05-08 15:18 | 49.84725 | 10.95962 | 38088 ft | 439 kts | 316° |
| 2026-05-08 15:18 | 49.89357 | 10.89796 | 38091 ft | 439 kts | 316° |
| 2026-05-08 15:19 | 49.93988 | 10.83618 | 38093 ft | 439 kts | 316° |
| 2026-05-08 15:19 | 49.98610 | 10.77433 | 38089 ft | 439 kts | 316° |
| 2026-05-08 15:20 | 50.03226 | 10.71243 | 38090 ft | 438 kts | 316° |
| 2026-05-08 15:20 | 50.07809 | 10.65082 | 38093 ft | 438 kts | 316° |
| 2026-05-08 15:21 | 50.12417 | 10.58868 | 38098 ft | 438 kts | 316° |
| 2026-05-08 15:21 | 50.17028 | 10.52651 | 38105 ft | 438 kts | 316° |
| 2026-05-08 15:22 | 50.21637 | 10.46407 | 38102 ft | 439 kts | 316° |
| 2026-05-08 15:22 | 50.26241 | 10.40144 | 38115 ft | 439 kts | 316° |
| 2026-05-08 15:23 | 50.30847 | 10.33859 | 38114 ft | 440 kts | 316° |
| 2026-05-08 15:23 | 50.35422 | 10.27518 | 38114 ft | 438 kts | 312° |
| 2026-05-08 15:24 | 50.39435 | 10.20377 | 38118 ft | 437 kts | 308° |
| 2026-05-08 15:24 | 50.43347 | 10.13109 | 38131 ft | 436 kts | 307° |
| 2026-05-08 15:25 | 50.47272 | 10.05836 | 38124 ft | 437 kts | 308° |
| 2026-05-08 15:25 | 50.51220 | 9.98560 | 38133 ft | 438 kts | 308° |
| 2026-05-08 15:26 | 50.55171 | 9.91272 | 38127 ft | 438 kts | 308° |
| 2026-05-08 15:26 | 50.59121 | 9.83968 | 38133 ft | 438 kts | 308° |
| 2026-05-08 15:27 | 50.63072 | 9.76641 | 38128 ft | 439 kts | 308° |
| 2026-05-08 15:27 | 50.67016 | 9.69306 | 38129 ft | 439 kts | 307° |
| 2026-05-08 15:28 | 50.70955 | 9.61954 | 38126 ft | 439 kts | 307° |
| 2026-05-08 15:28 | 50.74888 | 9.54594 | 38127 ft | 438 kts | 307° |
| 2026-05-08 15:29 | 50.78810 | 9.47239 | 38128 ft | 437 kts | 307° |
| 2026-05-08 15:29 | 50.82722 | 9.39878 | 38129 ft | 437 kts | 307° |
| 2026-05-08 15:30 | 50.86623 | 9.32516 | 38126 ft | 436 kts | 307° |
| 2026-05-08 15:30 | 50.90512 | 9.25153 | 38131 ft | 436 kts | 307° |
| 2026-05-08 15:31 | 50.94395 | 9.17783 | 38129 ft | 435 kts | 307° |
| 2026-05-08 15:31 | 50.98268 | 9.10414 | 38126 ft | 435 kts | 307° |
| 2026-05-08 15:32 | 51.02131 | 9.03036 | 38133 ft | 434 kts | 307° |
| 2026-05-08 15:32 | 51.05334 | 8.96908 | 38130 ft | 434 kts | 307° |
| 2026-05-08 15:33 | 51.09186 | 8.89514 | 38132 ft | 434 kts | 307° |
| 2026-05-08 15:33 | 51.13035 | 8.82109 | 38129 ft | 434 kts | 307° |
| 2026-05-08 15:34 | 51.17147 | 8.75046 | 38146 ft | 436 kts | 311° |
| 2026-05-08 15:34 | 51.21401 | 8.68155 | 38136 ft | 436 kts | 312° |
| 2026-05-08 15:35 | 51.25651 | 8.61239 | 38129 ft | 436 kts | 311° |
| 2026-05-08 15:35 | 51.29881 | 8.54280 | 38126 ft | 437 kts | 311° |
| 2026-05-08 15:36 | 51.34098 | 8.47294 | 38121 ft | 437 kts | 311° |
| 2026-05-08 15:36 | 51.38315 | 8.40283 | 38117 ft | 437 kts | 311° |
| 2026-05-08 15:37 | 51.42523 | 8.33265 | 38122 ft | 437 kts | 311° |
| 2026-05-08 15:37 | 51.46729 | 8.26234 | 38121 ft | 437 kts | 311° |
| 2026-05-08 15:38 | 51.50938 | 8.19179 | 38120 ft | 438 kts | 311° |
| 2026-05-08 15:38 | 51.55115 | 8.12156 | 38120 ft | 438 kts | 311° |
| 2026-05-08 15:39 | 51.59315 | 8.05074 | 38118 ft | 437 kts | 311° |
| 2026-05-08 15:39 | 51.63508 | 7.97984 | 38117 ft | 437 kts | 311° |
| 2026-05-08 15:40 | 51.67687 | 7.90898 | 38122 ft | 436 kts | 311° |
| 2026-05-08 15:40 | 51.71856 | 7.83807 | 38117 ft | 436 kts | 311° |
| 2026-05-08 15:41 | 51.76020 | 7.76705 | 38121 ft | 435 kts | 311° |
| 2026-05-08 15:41 | 51.78101 | 7.73150 | 37751 ft | 438 kts | 311° |
| 2026-05-08 15:41 | 51.80183 | 7.69588 | 37293 ft | 434 kts | 310° |
| 2026-05-08 15:42 | 51.82247 | 7.66048 | 36745 ft | 432 kts | 310° |
| 2026-05-08 15:42 | 51.84303 | 7.62514 | 36200 ft | 431 kts | 310° |
| 2026-05-08 15:42 | 51.86352 | 7.58991 | 35590 ft | 431 kts | 310° |
| 2026-05-08 15:42 | 51.88409 | 7.55452 | 34965 ft | 431 kts | 310° |
| 2026-05-08 15:43 | 51.90465 | 7.51913 | 34342 ft | 432 kts | 310° |
| 2026-05-08 15:43 | 51.92519 | 7.48367 | 33693 ft | 432 kts | 310° |
| 2026-05-08 15:43 | 51.94570 | 7.44818 | 33029 ft | 432 kts | 310° |
| 2026-05-08 15:43 | 51.96627 | 7.41253 | 32348 ft | 433 kts | 309° |
| 2026-05-08 15:44 | 51.98403 | 7.37356 | 31645 ft | 429 kts | 296° |
| 2026-05-08 15:44 | 51.99596 | 7.32957 | 31135 ft | 423 kts | 287° |
| 2026-05-08 15:44 | 52.00329 | 7.28388 | 30643 ft | 416 kts | 277° |
| 2026-05-08 15:44 | 52.00705 | 7.23746 | 30152 ft | 412 kts | 276° |
| 2026-05-08 15:45 | 52.01070 | 7.19156 | 29639 ft | 409 kts | 276° |
| 2026-05-08 15:45 | 52.01439 | 7.14595 | 29077 ft | 407 kts | 276° |
| 2026-05-08 15:45 | 52.01810 | 7.10054 | 28516 ft | 404 kts | 277° |
| 2026-05-08 15:45 | 52.02181 | 7.05545 | 27995 ft | 402 kts | 277° |
| 2026-05-08 15:46 | 52.02552 | 7.01074 | 27483 ft | 398 kts | 277° |
| 2026-05-08 15:46 | 52.02921 | 6.96634 | 26970 ft | 395 kts | 277° |
| 2026-05-08 15:46 | 52.03286 | 6.92228 | 26447 ft | 393 kts | 277° |
| 2026-05-08 15:46 | 52.03648 | 6.87848 | 25916 ft | 391 kts | 277° |
| 2026-05-08 15:47 | 52.04006 | 6.83490 | 25408 ft | 388 kts | 276° |
| 2026-05-08 15:47 | 52.04360 | 6.79164 | 24890 ft | 385 kts | 276° |
| 2026-05-08 15:47 | 52.04712 | 6.74863 | 24370 ft | 383 kts | 276° |
| 2026-05-08 15:47 | 52.05058 | 6.70578 | 23848 ft | 381 kts | 276° |
| 2026-05-08 15:48 | 52.05733 | 6.62152 | 22913 ft | 375 kts | 276° |
| 2026-05-08 15:48 | 52.06067 | 6.57963 | 22445 ft | 372 kts | 276° |
| 2026-05-08 15:48 | 52.06398 | 6.53807 | 21960 ft | 370 kts | 276° |
| 2026-05-08 15:49 | 52.06725 | 6.49677 | 21477 ft | 367 kts | 276° |
| 2026-05-08 15:49 | 52.07048 | 6.45574 | 21004 ft | 365 kts | 276° |
| 2026-05-08 15:49 | 52.07368 | 6.41494 | 20519 ft | 363 kts | 276° |
| 2026-05-08 15:49 | 52.07683 | 6.37443 | 20058 ft | 360 kts | 276° |
| 2026-05-08 15:50 | 52.07995 | 6.33422 | 19603 ft | 357 kts | 276° |
| 2026-05-08 15:50 | 52.08304 | 6.29425 | 19021 ft | 357 kts | 276° |
| 2026-05-08 15:50 | 52.08616 | 6.25381 | 18261 ft | 363 kts | 276° |
| 2026-05-08 15:50 | 52.08927 | 6.21318 | 17889 ft | 357 kts | 276° |
| 2026-05-08 15:51 | 52.09231 | 6.17343 | 17478 ft | 352 kts | 276° |
| 2026-05-08 15:51 | 52.09530 | 6.13415 | 17057 ft | 348 kts | 276° |
| 2026-05-08 15:51 | 52.09824 | 6.09530 | 16631 ft | 345 kts | 276° |
| 2026-05-08 15:51 | 52.10114 | 6.05674 | 16207 ft | 342 kts | 276° |
| 2026-05-08 15:52 | 52.10400 | 6.01855 | 15787 ft | 339 kts | 276° |
| 2026-05-08 15:52 | 52.10683 | 5.98064 | 15372 ft | 336 kts | 276° |
| 2026-05-08 15:52 | 52.10962 | 5.94309 | 14958 ft | 333 kts | 276° |
| 2026-05-08 15:52 | 52.11238 | 5.90584 | 14546 ft | 331 kts | 276° |
| 2026-05-08 15:53 | 52.11512 | 5.86879 | 14136 ft | 329 kts | 276° |
| 2026-05-08 15:53 | 52.11781 | 5.83198 | 13737 ft | 327 kts | 276° |
| 2026-05-08 15:53 | 52.12048 | 5.79532 | 13324 ft | 325 kts | 276° |
| 2026-05-08 15:53 | 52.12313 | 5.75892 | 12919 ft | 323 kts | 276° |
| 2026-05-08 15:54 | 52.12576 | 5.72267 | 12517 ft | 322 kts | 276° |
| 2026-05-08 15:54 | 52.12836 | 5.68662 | 12114 ft | 320 kts | 276° |
| 2026-05-08 15:54 | 52.13093 | 5.65073 | 11708 ft | 318 kts | 276° |
| 2026-05-08 15:54 | 52.13347 | 5.61505 | 11314 ft | 317 kts | 276° |
| 2026-05-08 15:55 | 52.13599 | 5.57953 | 10913 ft | 315 kts | 275° |
| 2026-05-08 15:55 | 52.14094 | 5.50954 | 10430 ft | 303 kts | 275° |
| 2026-05-08 15:55 | 52.14330 | 5.47601 | 10285 ft | 294 kts | 275° |
| 2026-05-08 15:56 | 52.14558 | 5.44344 | 10156 ft | 285 kts | 275° |
| 2026-05-08 15:56 | 52.14779 | 5.41174 | 9932 ft | 280 kts | 275° |
| 2026-05-08 15:56 | 52.14994 | 5.38071 | 9651 ft | 279 kts | 275° |
| 2026-05-08 15:56 | 52.15212 | 5.34901 | 9356 ft | 277 kts | 275° |
| 2026-05-08 15:57 | 52.15428 | 5.31791 | 9060 ft | 276 kts | 275° |
| 2026-05-08 15:57 | 52.15639 | 5.28739 | 8770 ft | 274 kts | 275° |
| 2026-05-08 15:57 | 52.15848 | 5.25660 | 8467 ft | 273 kts | 275° |
| 2026-05-08 15:57 | 52.16054 | 5.22596 | 8170 ft | 272 kts | 275° |
| 2026-05-08 15:58 | 52.16260 | 5.19535 | 7871 ft | 271 kts | 275° |
| 2026-05-08 15:58 | 52.16466 | 5.16482 | 7574 ft | 271 kts | 275° |
| 2026-05-08 15:58 | 52.16675 | 5.13441 | 7287 ft | 271 kts | 276° |
| 2026-05-08 15:58 | 52.16877 | 5.10388 | 6985 ft | 271 kts | 275° |
| 2026-05-08 15:59 | 52.17075 | 5.07338 | 6683 ft | 270 kts | 276° |
| 2026-05-08 15:59 | 52.17289 | 5.04311 | 6389 ft | 268 kts | 275° |
| 2026-05-08 15:59 | 52.17488 | 5.01306 | 6088 ft | 267 kts | 275° |
| 2026-05-08 15:59 | 52.17681 | 4.98308 | 5795 ft | 266 kts | 275° |
| 2026-05-08 16:00 | 52.17875 | 4.95314 | 5484 ft | 266 kts | 275° |
| 2026-05-08 16:00 | 52.18070 | 4.92305 | 5112 ft | 268 kts | 275° |
| 2026-05-08 16:00 | 52.18266 | 4.89288 | 4803 ft | 267 kts | 276° |
| 2026-05-08 16:00 | 52.18462 | 4.86275 | 4528 ft | 266 kts | 276° |
| 2026-05-08 16:01 | 52.18652 | 4.83331 | 4420 ft | 256 kts | 276° |
| 2026-05-08 16:01 | 52.18836 | 4.80483 | 4292 ft | 249 kts | 275° |
| 2026-05-08 16:01 | 52.18738 | 4.77720 | 4163 ft | 242 kts | 257° |
| 2026-05-08 16:01 | 52.18368 | 4.75071 | 3942 ft | 240 kts | 257° |
| 2026-05-08 16:02 | 52.18016 | 4.72444 | 3780 ft | 235 kts | 257° |
| 2026-05-08 16:02 | 52.17668 | 4.69833 | 3502 ft | 237 kts | 257° |
| 2026-05-08 16:02 | 52.17311 | 4.67170 | 3104 ft | 243 kts | 257° |
| 2026-05-08 16:02 | 52.16972 | 4.64511 | 2868 ft | 237 kts | 263° |
| 2026-05-08 16:03 | 52.17000 | 4.61873 | 2631 ft | 229 kts | 280° |
| 2026-05-08 16:03 | 52.17702 | 4.59677 | 2346 ft | 217 kts | 322° |
| 2026-05-08 16:03 | 52.19031 | 4.58769 | 2129 ft | 204 kts | 352° |
| 2026-05-08 16:03 | 52.20394 | 4.58687 | 2005 ft | 189 kts | 8° |
| 2026-05-08 16:04 | 52.21666 | 4.59006 | 2002 ft | 185 kts | 11° |
| 2026-05-08 16:04 | 52.22923 | 4.59424 | 1984 ft | 184 kts | 21° |
| 2026-05-08 16:04 | 52.23861 | 4.60707 | 1834 ft | 172 kts | 58° |
| 2026-05-08 16:04 | 52.24506 | 4.62282 | 1625 ft | 161 kts | 56° |
| 2026-05-08 16:05 | 52.25089 | 4.63741 | 1412 ft | 148 kts | 58° |
| 2026-05-08 16:05 | 52.25627 | 4.65141 | 1219 ft | 146 kts | 58° |
| 2026-05-08 16:05 | 52.26157 | 4.66530 | 1045 ft | 146 kts | 58° |
| 2026-05-08 16:05 | 52.26680 | 4.67950 | 842 ft | 147 kts | 59° |
| 2026-05-08 16:06 | 52.27217 | 4.69365 | 640 ft | 146 kts | 57° |
| 2026-05-08 16:06 | 52.27757 | 4.70751 | 456 ft | 144 kts | 57° |
| 2026-05-08 16:06 | 52.28297 | 4.72113 | 277 ft | 142 kts | 57° |
| 2026-05-08 16:06 | 52.28826 | 4.73490 | 74 ft | 144 kts | 58° |
| 2026-05-08 16:07 | 52.29343 | 4.74855 | -2 ft | 130 kts | 57° |
| 2026-05-08 16:07 | 52.29738 | 4.75877 | -3 ft | 86 kts | 58° |
| 2026-05-08 16:07 | 52.29985 | 4.76486 | -3 ft | 43 kts | 45° |
| 2026-05-08 16:07 | 52.30186 | 4.76677 | -2 ft | 25 kts | 28° |
| 2026-05-08 16:08 | 52.30308 | 4.76824 | -2 ft | 21 kts | 55° |
| 2026-05-08 16:08 | 52.30388 | 4.77025 | -2 ft | 21 kts | 55° |
| 2026-05-08 16:08 | 52.30489 | 4.76989 | -2 ft | 16 kts | 327° |
| 2026-05-08 16:08 | 52.30580 | 4.76891 | -2 ft | 14 kts | 317° |
| 2026-05-08 16:09 | 52.30625 | 4.76786 | -2 ft | 9 kts | 297° |
| 2026-05-08 16:09 | 52.30609 | 4.76734 | -2 ft | 7 kts | 215° |
| 2026-05-08 16:09 | 52.30577 | 4.76698 | -2 ft | 1 kts | 215° |
| 2026-05-08 16:09 | 52.30575 | 4.76696 | -2 ft | 0 kts | 215° |